Industry, Kansas
Current Conditions -  °F | °C
As of 9:45 AM on Friday 19 Dec 2014 (Local Time) from KFRI Reporting Station
Haze Haze  
Wind Chill: 24°   Ceiling: 400
Heat Index: 30°   Visibility: 6mi
Dew Point: 30°   Wind: 6mph
Humidity: 100%   Direction: 200°SSW
Pressure: 30.28"   Gusts: NA
Location:  39.0421°N, 97.1702°W
Report Text: KFRI 191545Z AUTO 20005KT 6SM BR OVC004 M01/M01 A3028 RMK AO2
Loading
Personal Weather Stations






























Interactive Weather Map New forecast layout! Learn more

10-Day Weather Forecast

Advertisements
Track Severe Weather on mobile